Bhakkar Weather



Bhakkar's Current Weather

Temprature 43.22o clear sky

clear sky

Rain: 0 %

Min Temprature43.22o
Max Temprature43.22o
Humidity23
Wind Speed4.78 m/h
Sun Rise05:39:40
Sun Set19:01:39
Current Time: 13-Aug-2020 19:35:03
Lat/Lon: 31.63, 71.07




Bhakkar's Geo Location



Bhakkar's Weather Forecast

Time Overall Temp Min Temp Max Temp Humidity Wind Speed Rain
13-Aug-2020 (Thu)
20:00:00 few clouds 44.080 43.220 44.080 23 4.78 m/h 0 %
23:00:00 scattered clouds 41.710 40.840 41.710 28 6.63 m/h 0 %
14-Aug-2020 (Fri)
02:00:00 scattered clouds 36.950 36.410 36.950 40 7.17 m/h 0 %
05:00:00 few clouds 33.920 33.830 33.920 53 6.85 m/h 0 %
08:00:00 clear sky 34.390 34.390 34.390 56 5.81 m/h 0 %
11:00:00 clear sky 38.900 38.900 38.900 40 4.41 m/h 0 %
14:00:00 few clouds 41.700 41.700 41.700 32 3.13 m/h 0 %
17:00:00 scattered clouds 43.180 43.180 43.180 28 4.09 m/h 0 %
20:00:00 broken clouds 41.260 41.260 41.260 31 5.01 m/h 0 %
23:00:00 light rain 38.620 38.620 38.620 38 7.3 m/h 23 %
15-Aug-2020 (Sat)
02:00:00 scattered clouds 37.320 37.320 37.320 42 6.31 m/h 0 %
05:00:00 broken clouds 36.610 36.610 36.610 42 5.17 m/h 0 %
08:00:00 clear sky 37.230 37.230 37.230 40 4.82 m/h 0 %
11:00:00 clear sky 41.470 41.470 41.470 30 3.69 m/h 0 %
14:00:00 clear sky 44.710 44.710 44.710 24 2.68 m/h 0 %
17:00:00 scattered clouds 44.930 44.930 44.930 23 3.65 m/h 0 %
20:00:00 few clouds 42.410 42.410 42.410 26 5.51 m/h 0 %
23:00:00 clear sky 39.270 39.270 39.270 36 7.38 m/h 0 %
16-Aug-2020 (Sun)
02:00:00 clear sky 37.720 37.720 37.720 38 7.29 m/h 0 %
05:00:00 clear sky 36.420 36.420 36.420 40 2.43 m/h 0 %
08:00:00 clear sky 37.930 37.930 37.930 38 4.87 m/h 0 %
11:00:00 clear sky 42.180 42.180 42.180 29 4.71 m/h 0 %
14:00:00 clear sky 44.830 44.830 44.830 24 3.73 m/h 0 %
17:00:00 few clouds 45.170 45.170 45.170 21 2.95 m/h 0 %
20:00:00 clear sky 42.260 42.260 42.260 27 7.52 m/h 0 %
23:00:00 clear sky 39.430 39.430 39.430 34 7.44 m/h 0 %
17-Aug-2020 (Mon)
02:00:00 clear sky 37.620 37.620 37.620 38 6.15 m/h 0 %
05:00:00 clear sky 36.200 36.200 36.200 42 4.13 m/h 0 %
08:00:00 clear sky 37.640 37.640 37.640 41 3.68 m/h 0 %
11:00:00 clear sky 41.670 41.670 41.670 31 3.45 m/h 0 %
14:00:00 clear sky 44.780 44.780 44.780 24 3.53 m/h 0 %
17:00:00 scattered clouds 44.830 44.830 44.830 23 3.18 m/h 0 %
20:00:00 scattered clouds 42.150 42.150 42.150 27 5.16 m/h 0 %
23:00:00 broken clouds 39.890 39.890 39.890 33 4.93 m/h 0 %
18-Aug-2020 (Tue)
02:00:00 broken clouds 37.160 37.160 37.160 39 6.28 m/h 0 %
05:00:00 scattered clouds 34.750 34.750 34.750 46 5.29 m/h 0 %
08:00:00 scattered clouds 36.720 36.720 36.720 40 3.29 m/h 0 %
11:00:00 few clouds 42.180 42.180 42.180 29 3.2 m/h 0 %
14:00:00 few clouds 45.370 45.370 45.370 23 5 m/h 0 %
17:00:00 scattered clouds 45.020 45.020 45.020 22 6.18 m/h 0 %


Bhakkar's Tourist Spots

Historical Places in Bhakkar

Famous Cities (60)